sensor_id;sensor_type;location;lat;lon;timestamp;temperature;humidity
55121;DHT22;41019;48.512;9.036;2023-04-15T00:00:10;4.90;91.40
55121;DHT22;41019;48.512;9.036;2023-04-15T00:02:39;4.90;91.50
55121;DHT22;41019;48.512;9.036;2023-04-15T00:05:05;4.80;91.80
55121;DHT22;41019;48.512;9.036;2023-04-15T00:07:31;4.70;91.70
55121;DHT22;41019;48.512;9.036;2023-04-15T00:09:57;4.70;91.50
55121;DHT22;41019;48.512;9.036;2023-04-15T00:12:24;4.60;91.60
55121;DHT22;41019;48.512;9.036;2023-04-15T00:14:50;4.60;91.60
55121;DHT22;41019;48.512;9.036;2023-04-15T00:17:16;4.60;91.60
55121;DHT22;41019;48.512;9.036;2023-04-15T00:19:43;4.50;91.50
55121;DHT22;41019;48.512;9.036;2023-04-15T00:22:11;4.40;91.60
55121;DHT22;41019;48.512;9.036;2023-04-15T00:24:38;4.40;91.50
55121;DHT22;41019;48.512;9.036;2023-04-15T00:27:05;4.30;91.40
55121;DHT22;41019;48.512;9.036;2023-04-15T00:29:31;4.30;91.30
55121;DHT22;41019;48.512;9.036;2023-04-15T00:31:57;4.20;91.30
55121;DHT22;41019;48.512;9.036;2023-04-15T00:34:23;4.20;91.30
55121;DHT22;41019;48.512;9.036;2023-04-15T00:36:49;4.10;91.50
55121;DHT22;41019;48.512;9.036;2023-04-15T00:39:16;4.10;91.50
55121;DHT22;41019;48.512;9.036;2023-04-15T00:41:43;4.10;91.80
55121;DHT22;41019;48.512;9.036;2023-04-15T00:44:11;4.10;92.00
55121;DHT22;41019;48.512;9.036;2023-04-15T00:46:38;4.10;91.90
55121;DHT22;41019;48.512;9.036;2023-04-15T00:49:05;4.00;92.10
55121;DHT22;41019;48.512;9.036;2023-04-15T00:51:35;4.00;92.20
55121;DHT22;41019;48.512;9.036;2023-04-15T00:54:03;4.00;92.10
55121;DHT22;41019;48.512;9.036;2023-04-15T00:56:29;4.00;92.20
55121;DHT22;41019;48.512;9.036;2023-04-15T00:58:57;4.00;92.60
55121;DHT22;41019;48.512;9.036;2023-04-15T01:01:25;4.00;92.30
55121;DHT22;41019;48.512;9.036;2023-04-15T01:03:51;4.00;92.60
55121;DHT22;41019;48.512;9.036;2023-04-15T01:06:17;4.00;92.90
55121;DHT22;41019;48.512;9.036;2023-04-15T01:08:44;4.00;93.00
55121;DHT22;41019;48.512;9.036;2023-04-15T01:11:14;4.00;93.10
55121;DHT22;41019;48.512;9.036;2023-04-15T01:13:41;4.00;93.10
55121;DHT22;41019;48.512;9.036;2023-04-15T01:16:07;4.00;92.80
55121;DHT22;41019;48.512;9.036;2023-04-15T01:18:35;4.00;92.80
55121;DHT22;41019;48.512;9.036;2023-04-15T01:21:04;4.00;92.70
55121;DHT22;41019;48.512;9.036;2023-04-15T01:23:35;3.90;93.00
55121;DHT22;41019;48.512;9.036;2023-04-15T01:26:06;3.90;93.50
55121;DHT22;41019;48.512;9.036;2023-04-15T01:28:34;3.90;93.50
55121;DHT22;41019;48.512;9.036;2023-04-15T01:31:11;3.90;93.50
55121;DHT22;41019;48.512;9.036;2023-04-15T01:33:40;3.90;93.30
55121;DHT22;41019;48.512;9.036;2023-04-15T01:36:08;3.80;93.30
55121;DHT22;41019;48.512;9.036;2023-04-15T01:38:35;3.80;93.10
55121;DHT22;41019;48.512;9.036;2023-04-15T01:41:02;3.80;93.10
55121;DHT22;41019;48.512;9.036;2023-04-15T01:43:34;3.80;93.50
55121;DHT22;41019;48.512;9.036;2023-04-15T01:46:01;3.70;93.30
55121;DHT22;41019;48.512;9.036;2023-04-15T01:48:27;3.70;93.10
55121;DHT22;41019;48.512;9.036;2023-04-15T01:50:54;3.70;93.10
55121;DHT22;41019;48.512;9.036;2023-04-15T01:53:23;3.60;93.10
55121;DHT22;41019;48.512;9.036;2023-04-15T01:55:49;3.60;93.30
55121;DHT22;41019;48.512;9.036;2023-04-15T01:58:16;3.60;93.30
55121;DHT22;41019;48.512;9.036;2023-04-15T02:00:42;3.50;93.20
55121;DHT22;41019;48.512;9.036;2023-04-15T02:03:08;3.50;93.30
55121;DHT22;41019;48.512;9.036;2023-04-15T02:05:34;3.50;93.50
55121;DHT22;41019;48.512;9.036;2023-04-15T02:08:05;3.40;93.40
55121;DHT22;41019;48.512;9.036;2023-04-15T02:10:31;3.40;93.30
55121;DHT22;41019;48.512;9.036;2023-04-15T02:12:58;3.40;93.30
55121;DHT22;41019;48.512;9.036;2023-04-15T02:15:26;3.40;93.30
55121;DHT22;41019;48.512;9.036;2023-04-15T02:17:52;3.40;93.30
55121;DHT22;41019;48.512;9.036;2023-04-15T02:20:20;3.30;93.50
55121;DHT22;41019;48.512;9.036;2023-04-15T02:22:46;3.30;93.60
55121;DHT22;41019;48.512;9.036;2023-04-15T02:25:14;3.30;93.70
55121;DHT22;41019;48.512;9.036;2023-04-15T02:27:43;3.30;93.60
55121;DHT22;41019;48.512;9.036;2023-04-15T02:30:10;3.30;93.50
55121;DHT22;41019;48.512;9.036;2023-04-15T02:32:36;3.30;93.50
55121;DHT22;41019;48.512;9.036;2023-04-15T02:35:04;3.20;93.70
55121;DHT22;41019;48.512;9.036;2023-04-15T02:37:31;3.20;93.60
55121;DHT22;41019;48.512;9.036;2023-04-15T02:39:57;3.20;93.80
55121;DHT22;41019;48.512;9.036;2023-04-15T02:42:23;3.20;93.60
55121;DHT22;41019;48.512;9.036;2023-04-15T02:44:52;3.20;93.70
55121;DHT22;41019;48.512;9.036;2023-04-15T02:47:21;3.10;93.70
55121;DHT22;41019;48.512;9.036;2023-04-15T02:49:48;3.10;93.70
55121;DHT22;41019;48.512;9.036;2023-04-15T02:52:14;3.10;93.70
55121;DHT22;41019;48.512;9.036;2023-04-15T02:54:40;3.00;93.90
55121;DHT22;41019;48.512;9.036;2023-04-15T02:57:06;3.00;94.00
55121;DHT22;41019;48.512;9.036;2023-04-15T02:59:33;3.00;94.10
55121;DHT22;41019;48.512;9.036;2023-04-15T03:01:58;3.00;94.10
55121;DHT22;41019;48.512;9.036;2023-04-15T03:04:27;2.90;93.90
55121;DHT22;41019;48.512;9.036;2023-04-15T03:06:54;2.90;94.00
55121;DHT22;41019;48.512;9.036;2023-04-15T03:09:22;2.90;94.20
55121;DHT22;41019;48.512;9.036;2023-04-15T03:11:47;2.90;94.20
55121;DHT22;41019;48.512;9.036;2023-04-15T03:14:14;2.90;94.40
55121;DHT22;41019;48.512;9.036;2023-04-15T03:16:44;2.80;94.30
55121;DHT22;41019;48.512;9.036;2023-04-15T03:19:11;2.80;94.20
55121;DHT22;41019;48.512;9.036;2023-04-15T03:21:40;2.80;94.10
55121;DHT22;41019;48.512;9.036;2023-04-15T03:24:07;2.80;94.30
55121;DHT22;41019;48.512;9.036;2023-04-15T03:26:33;2.70;94.30
55121;DHT22;41019;48.512;9.036;2023-04-15T03:29:01;2.70;94.40
55121;DHT22;41019;48.512;9.036;2023-04-15T03:31:27;2.70;94.30
55121;DHT22;41019;48.512;9.036;2023-04-15T03:33:53;2.70;94.40
55121;DHT22;41019;48.512;9.036;2023-04-15T03:36:19;2.70;94.50
55121;DHT22;41019;48.512;9.036;2023-04-15T03:38:45;2.70;94.40
55121;DHT22;41019;48.512;9.036;2023-04-15T03:41:11;2.70;94.30
55121;DHT22;41019;48.512;9.036;2023-04-15T03:43:38;2.60;94.30
55121;DHT22;41019;48.512;9.036;2023-04-15T03:46:03;2.60;94.30
55121;DHT22;41019;48.512;9.036;2023-04-15T03:48:29;2.60;94.20
55121;DHT22;41019;48.512;9.036;2023-04-15T03:50:55;2.60;94.30
55121;DHT22;41019;48.512;9.036;2023-04-15T03:53:22;2.60;94.40
55121;DHT22;41019;48.512;9.036;2023-04-15T03:55:48;2.60;94.30
55121;DHT22;41019;48.512;9.036;2023-04-15T03:58:14;2.60;94.70
55121;DHT22;41019;48.512;9.036;2023-04-15T04:00:40;2.60;94.50
55121;DHT22;41019;48.512;9.036;2023-04-15T04:03:06;2.50;94.20
55121;DHT22;41019;48.512;9.036;2023-04-15T04:05:31;2.50;94.40
55121;DHT22;41019;48.512;9.036;2023-04-15T04:07:57;2.50;94.30
55121;DHT22;41019;48.512;9.036;2023-04-15T04:10:23;2.50;94.00
55121;DHT22;41019;48.512;9.036;2023-04-15T04:12:49;2.40;94.00
55121;DHT22;41019;48.512;9.036;2023-04-15T04:15:14;2.40;94.20
55121;DHT22;41019;48.512;9.036;2023-04-15T04:17:40;2.40;94.30
55121;DHT22;41019;48.512;9.036;2023-04-15T04:20:07;2.40;94.20
55121;DHT22;41019;48.512;9.036;2023-04-15T04:22:37;2.40;94.40
55121;DHT22;41019;48.512;9.036;2023-04-15T04:25:05;2.40;94.50
55121;DHT22;41019;48.512;9.036;2023-04-15T04:27:31;2.40;94.40
55121;DHT22;41019;48.512;9.036;2023-04-15T04:29:57;2.30;94.40
55121;DHT22;41019;48.512;9.036;2023-04-15T04:32:23;2.40;94.70
55121;DHT22;41019;48.512;9.036;2023-04-15T04:34:49;2.30;94.80
55121;DHT22;41019;48.512;9.036;2023-04-15T04:37:15;2.30;94.70
55121;DHT22;41019;48.512;9.036;2023-04-15T04:39:41;2.30;94.50
55121;DHT22;41019;48.512;9.036;2023-04-15T04:42:07;2.40;94.50
55121;DHT22;41019;48.512;9.036;2023-04-15T04:44:33;2.30;94.60
55121;DHT22;41019;48.512;9.036;2023-04-15T04:46:58;2.40;94.80
55121;DHT22;41019;48.512;9.036;2023-04-15T04:49:24;2.40;95.00
55121;DHT22;41019;48.512;9.036;2023-04-15T04:51:50;2.40;94.60
55121;DHT22;41019;48.512;9.036;2023-04-15T04:54:17;2.40;94.80
55121;DHT22;41019;48.512;9.036;2023-04-15T04:56:42;2.40;95.00
55121;DHT22;41019;48.512;9.036;2023-04-15T04:59:08;2.40;95.10
55121;DHT22;41019;48.512;9.036;2023-04-15T05:01:34;2.30;94.80
55121;DHT22;41019;48.512;9.036;2023-04-15T05:04:00;2.40;94.60
55121;DHT22;41019;48.512;9.036;2023-04-15T05:06:26;2.40;94.60
55121;DHT22;41019;48.512;9.036;2023-04-15T05:08:52;2.40;94.60
55121;DHT22;41019;48.512;9.036;2023-04-15T05:11:18;2.40;94.60
55121;DHT22;41019;48.512;9.036;2023-04-15T05:13:44;2.40;94.70
55121;DHT22;41019;48.512;9.036;2023-04-15T05:16:10;2.40;94.80
55121;DHT22;41019;48.512;9.036;2023-04-15T05:18:36;2.40;94.70
55121;DHT22;41019;48.512;9.036;2023-04-15T05:21:02;2.40;94.90
55121;DHT22;41019;48.512;9.036;2023-04-15T05:23:28;2.40;94.70
55121;DHT22;41019;48.512;9.036;2023-04-15T05:25:54;2.50;94.70
55121;DHT22;41019;48.512;9.036;2023-04-15T05:28:20;2.50;94.90
55121;DHT22;41019;48.512;9.036;2023-04-15T05:30:46;2.50;94.80
55121;DHT22;41019;48.512;9.036;2023-04-15T05:33:12;2.60;94.80
55121;DHT22;41019;48.512;9.036;2023-04-15T05:35:38;2.60;94.70
55121;DHT22;41019;48.512;9.036;2023-04-15T05:38:04;2.60;94.90
55121;DHT22;41019;48.512;9.036;2023-04-15T05:40:30;2.70;94.80
55121;DHT22;41019;48.512;9.036;2023-04-15T05:42:56;2.70;94.80
55121;DHT22;41019;48.512;9.036;2023-04-15T05:45:23;2.80;94.70
55121;DHT22;41019;48.512;9.036;2023-04-15T05:47:49;2.80;95.00
55121;DHT22;41019;48.512;9.036;2023-04-15T05:50:15;2.90;94.80
55121;DHT22;41019;48.512;9.036;2023-04-15T05:52:41;3.00;94.80
55121;DHT22;41019;48.512;9.036;2023-04-15T05:55:07;3.00;94.60
55121;DHT22;41019;48.512;9.036;2023-04-15T05:57:33;3.10;94.60
55121;DHT22;41019;48.512;9.036;2023-04-15T05:59:58;3.20;94.50
55121;DHT22;41019;48.512;9.036;2023-04-15T06:02:24;3.20;94.50
55121;DHT22;41019;48.512;9.036;2023-04-15T06:04:51;3.20;94.50
55121;DHT22;41019;48.512;9.036;2023-04-15T06:07:16;3.20;94.30
55121;DHT22;41019;48.512;9.036;2023-04-15T06:09:42;3.30;94.40
55121;DHT22;41019;48.512;9.036;2023-04-15T06:12:09;3.30;94.40
55121;DHT22;41019;48.512;9.036;2023-04-15T06:14:37;3.40;94.50
55121;DHT22;41019;48.512;9.036;2023-04-15T06:17:03;3.40;94.30
55121;DHT22;41019;48.512;9.036;2023-04-15T06:19:29;3.40;94.20
55121;DHT22;41019;48.512;9.036;2023-04-15T06:21:55;3.40;93.90
55121;DHT22;41019;48.512;9.036;2023-04-15T06:24:21;3.50;94.00
55121;DHT22;41019;48.512;9.036;2023-04-15T06:26:47;3.50;94.00
55121;DHT22;41019;48.512;9.036;2023-04-15T06:29:13;3.50;93.80
55121;DHT22;41019;48.512;9.036;2023-04-15T06:31:38;3.60;93.90
55121;DHT22;41019;48.512;9.036;2023-04-15T06:34:04;3.60;93.90
55121;DHT22;41019;48.512;9.036;2023-04-15T06:36:31;3.70;94.20
55121;DHT22;41019;48.512;9.036;2023-04-15T06:38:57;3.70;94.00
55121;DHT22;41019;48.512;9.036;2023-04-15T06:41:23;3.80;94.10
55121;DHT22;41019;48.512;9.036;2023-04-15T06:43:50;3.80;94.00
55121;DHT22;41019;48.512;9.036;2023-04-15T06:46:15;3.90;94.00
55121;DHT22;41019;48.512;9.036;2023-04-15T06:48:41;4.00;93.90
55121;DHT22;41019;48.512;9.036;2023-04-15T06:51:08;4.10;93.70
55121;DHT22;41019;48.512;9.036;2023-04-15T06:53:34;4.20;93.40
55121;DHT22;41019;48.512;9.036;2023-04-15T06:56:00;4.30;93.50
55121;DHT22;41019;48.512;9.036;2023-04-15T06:58:25;4.50;93.40
55121;DHT22;41019;48.512;9.036;2023-04-15T07:00:52;4.70;93.00
55121;DHT22;41019;48.512;9.036;2023-04-15T07:03:17;4.80;92.70
55121;DHT22;41019;48.512;9.036;2023-04-15T07:05:43;5.10;92.60
55121;DHT22;41019;48.512;9.036;2023-04-15T07:08:09;5.30;92.70
55121;DHT22;41019;48.512;9.036;2023-04-15T07:10:35;5.50;92.40
55121;DHT22;41019;48.512;9.036;2023-04-15T07:13:01;5.70;91.90
55121;DHT22;41019;48.512;9.036;2023-04-15T07:15:27;6.00;91.60
55121;DHT22;41019;48.512;9.036;2023-04-15T07:17:53;6.20;91.50
55121;DHT22;41019;48.512;9.036;2023-04-15T07:20:19;6.40;90.80
55121;DHT22;41019;48.512;9.036;2023-04-15T07:22:45;6.60;90.50
55121;DHT22;41019;48.512;9.036;2023-04-15T07:25:11;6.70;90.40
55121;DHT22;41019;48.512;9.036;2023-04-15T07:27:37;6.90;89.30
55121;DHT22;41019;48.512;9.036;2023-04-15T07:30:03;7.00;89.40
55121;DHT22;41019;48.512;9.036;2023-04-15T07:32:30;7.20;89.30
55121;DHT22;41019;48.512;9.036;2023-04-15T07:34:56;7.30;89.30
55121;DHT22;41019;48.512;9.036;2023-04-15T07:37:22;7.40;88.10
55121;DHT22;41019;48.512;9.036;2023-04-15T07:39:48;7.50;88.40
55121;DHT22;41019;48.512;9.036;2023-04-15T07:42:14;7.70;88.10
55121;DHT22;41019;48.512;9.036;2023-04-15T07:44:40;8.00;87.50
55121;DHT22;41019;48.512;9.036;2023-04-15T07:47:06;8.20;87.50
55121;DHT22;41019;48.512;9.036;2023-04-15T07:49:32;8.50;86.50
55121;DHT22;41019;48.512;9.036;2023-04-15T07:51:57;8.70;84.10
55121;DHT22;41019;48.512;9.036;2023-04-15T07:54:24;8.90;86.60
55121;DHT22;41019;48.512;9.036;2023-04-15T07:56:50;9.20;85.30
55121;DHT22;41019;48.512;9.036;2023-04-15T07:59:16;9.50;84.60
55121;DHT22;41019;48.512;9.036;2023-04-15T08:01:42;9.70;84.30
55121;DHT22;41019;48.512;9.036;2023-04-15T08:04:09;9.90;82.50
55121;DHT22;41019;48.512;9.036;2023-04-15T08:06:35;10.00;83.00
55121;DHT22;41019;48.512;9.036;2023-04-15T08:09:04;10.20;82.40
55121;DHT22;41019;48.512;9.036;2023-04-15T08:11:30;10.30;81.80
55121;DHT22;41019;48.512;9.036;2023-04-15T08:13:56;10.50;80.80
55121;DHT22;41019;48.512;9.036;2023-04-15T08:16:24;10.60;79.60
55121;DHT22;41019;48.512;9.036;2023-04-15T08:18:54;10.70;78.30
55121;DHT22;41019;48.512;9.036;2023-04-15T08:21:20;10.80;78.20
55121;DHT22;41019;48.512;9.036;2023-04-15T08:23:48;11.00;77.20
55121;DHT22;41019;48.512;9.036;2023-04-15T08:26:14;11.10;77.90
55121;DHT22;41019;48.512;9.036;2023-04-15T08:28:42;11.20;76.50
55121;DHT22;41019;48.512;9.036;2023-04-15T08:31:08;11.40;77.50
55121;DHT22;41019;48.512;9.036;2023-04-15T08:33:34;11.50;76.40
55121;DHT22;41019;48.512;9.036;2023-04-15T08:36:00;11.60;75.20
55121;DHT22;41019;48.512;9.036;2023-04-15T08:38:26;11.70;74.90
55121;DHT22;41019;48.512;9.036;2023-04-15T08:40:52;11.90;75.00
55121;DHT22;41019;48.512;9.036;2023-04-15T08:43:21;12.00;73.80
55121;DHT22;41019;48.512;9.036;2023-04-15T08:45:52;12.20;73.40
55121;DHT22;41019;48.512;9.036;2023-04-15T08:48:19;12.30;73.50
55121;DHT22;41019;48.512;9.036;2023-04-15T08:50:46;12.50;73.90
55121;DHT22;41019;48.512;9.036;2023-04-15T08:53:13;12.60;71.70
55121;DHT22;41019;48.512;9.036;2023-04-15T08:55:45;12.70;72.10
55121;DHT22;41019;48.512;9.036;2023-04-15T08:58:12;12.80;72.50
55121;DHT22;41019;48.512;9.036;2023-04-15T09:00:39;12.90;70.90
55121;DHT22;41019;48.512;9.036;2023-04-15T09:03:05;13.00;69.90
55121;DHT22;41019;48.512;9.036;2023-04-15T09:05:33;13.00;70.00
55121;DHT22;41019;48.512;9.036;2023-04-15T09:07:59;13.00;69.40
55121;DHT22;41019;48.512;9.036;2023-04-15T09:10:26;13.00;70.30
55121;DHT22;41019;48.512;9.036;2023-04-15T09:12:52;13.00;69.20
55121;DHT22;41019;48.512;9.036;2023-04-15T09:15:18;13.00;69.40
55121;DHT22;41019;48.512;9.036;2023-04-15T09:17:46;13.00;69.80
55121;DHT22;41019;48.512;9.036;2023-04-15T09:20:14;13.00;70.60
55121;DHT22;41019;48.512;9.036;2023-04-15T09:22:41;13.10;70.40
55121;DHT22;41019;48.512;9.036;2023-04-15T09:28:09;13.20;71.10
55121;DHT22;41019;48.512;9.036;2023-04-15T09:30:36;13.30;71.90
55121;DHT22;41019;48.512;9.036;2023-04-15T09:33:03;13.40;71.30
55121;DHT22;41019;48.512;9.036;2023-04-15T09:35:33;13.50;70.60
55121;DHT22;41019;48.512;9.036;2023-04-15T09:38:03;13.60;70.20
55121;DHT22;41019;48.512;9.036;2023-04-15T09:40:37;13.70;71.10
55121;DHT22;41019;48.512;9.036;2023-04-15T09:43:06;13.80;70.10
55121;DHT22;41019;48.512;9.036;2023-04-15T09:45:34;14.00;69.10
55121;DHT22;41019;48.512;9.036;2023-04-15T09:48:18;14.00;69.80
55121;DHT22;41019;48.512;9.036;2023-04-15T09:50:46;14.20;69.90
55121;DHT22;41019;48.512;9.036;2023-04-15T09:53:21;14.30;69.30
55121;DHT22;41019;48.512;9.036;2023-04-15T09:55:51;14.40;69.40
55121;DHT22;41019;48.512;9.036;2023-04-15T09:58:25;14.60;69.70
55121;DHT22;41019;48.512;9.036;2023-04-15T10:00:54;14.70;67.90
55121;DHT22;41019;48.512;9.036;2023-04-15T10:03:27;14.80;68.40
55121;DHT22;41019;48.512;9.036;2023-04-15T10:05:55;14.90;66.40
55121;DHT22;41019;48.512;9.036;2023-04-15T10:08:23;14.90;66.70
55121;DHT22;41019;48.512;9.036;2023-04-15T10:10:51;15.00;66.40
55121;DHT22;41019;48.512;9.036;2023-04-15T10:13:19;15.10;66.10
55121;DHT22;41019;48.512;9.036;2023-04-15T10:15:51;15.20;64.80
55121;DHT22;41019;48.512;9.036;2023-04-15T10:18:26;15.20;63.80
55121;DHT22;41019;48.512;9.036;2023-04-15T10:20:53;15.30;64.90
55121;DHT22;41019;48.512;9.036;2023-04-15T10:23:22;15.30;63.70
55121;DHT22;41019;48.512;9.036;2023-04-15T10:25:51;15.30;65.00
55121;DHT22;41019;48.512;9.036;2023-04-15T10:28:19;15.50;64.00
55121;DHT22;41019;48.512;9.036;2023-04-15T10:30:48;15.50;64.50
55121;DHT22;41019;48.512;9.036;2023-04-15T10:33:17;15.60;62.00
55121;DHT22;41019;48.512;9.036;2023-04-15T10:35:47;15.80;61.20
55121;DHT22;41019;48.512;9.036;2023-04-15T10:38:38;15.90;60.70
55121;DHT22;41019;48.512;9.036;2023-04-15T10:41:12;16.10;59.80
55121;DHT22;41019;48.512;9.036;2023-04-15T10:43:39;16.20;59.80
55121;DHT22;41019;48.512;9.036;2023-04-15T10:46:05;16.30;59.10
55121;DHT22;41019;48.512;9.036;2023-04-15T10:48:31;16.50;57.80
55121;DHT22;41019;48.512;9.036;2023-04-15T10:51:00;16.80;58.60
55121;DHT22;41019;48.512;9.036;2023-04-15T10:53:30;17.00;59.70
55121;DHT22;41019;48.512;9.036;2023-04-15T10:55:57;17.10;56.50
55121;DHT22;41019;48.512;9.036;2023-04-15T10:58:24;17.10;56.10
55121;DHT22;41019;48.512;9.036;2023-04-15T11:00:52;17.20;54.30
55121;DHT22;41019;48.512;9.036;2023-04-15T11:03:36;17.20;54.00
55121;DHT22;41019;48.512;9.036;2023-04-15T11:06:04;17.10;54.90
55121;DHT22;41019;48.512;9.036;2023-04-15T11:08:54;17.00;55.30
55121;DHT22;41019;48.512;9.036;2023-04-15T11:11:20;16.90;53.80
55121;DHT22;41019;48.512;9.036;2023-04-15T11:13:49;16.80;52.60
55121;DHT22;41019;48.512;9.036;2023-04-15T11:16:15;16.50;52.60
55121;DHT22;41019;48.512;9.036;2023-04-15T11:18:41;16.40;53.40
55121;DHT22;41019;48.512;9.036;2023-04-15T11:21:08;16.50;53.60
55121;DHT22;41019;48.512;9.036;2023-04-15T11:23:41;16.50;52.90
55121;DHT22;41019;48.512;9.036;2023-04-15T11:26:14;16.50;52.40
55121;DHT22;41019;48.512;9.036;2023-04-15T11:28:42;16.60;54.50
55121;DHT22;41019;48.512;9.036;2023-04-15T11:31:17;16.60;52.40
55121;DHT22;41019;48.512;9.036;2023-04-15T11:33:58;16.60;53.00
55121;DHT22;41019;48.512;9.036;2023-04-15T11:36:26;16.70;51.40
55121;DHT22;41019;48.512;9.036;2023-04-15T11:38:52;16.80;51.20
55121;DHT22;41019;48.512;9.036;2023-04-15T11:41:22;17.10;51.30
55121;DHT22;41019;48.512;9.036;2023-04-15T11:43:49;17.20;49.20
55121;DHT22;41019;48.512;9.036;2023-04-15T11:46:15;17.30;50.70
55121;DHT22;41019;48.512;9.036;2023-04-15T11:48:45;17.50;48.50
55121;DHT22;41019;48.512;9.036;2023-04-15T11:51:12;17.50;42.20
55121;DHT22;41019;48.512;9.036;2023-04-15T11:53:42;17.50;41.70
55121;DHT22;41019;48.512;9.036;2023-04-15T11:56:15;17.70;42.60
55121;DHT22;41019;48.512;9.036;2023-04-15T11:58:41;18.20;43.60
55121;DHT22;41019;48.512;9.036;2023-04-15T12:01:08;18.30;42.10
55121;DHT22;41019;48.512;9.036;2023-04-15T12:03:39;18.20;41.10
55121;DHT22;41019;48.512;9.036;2023-04-15T12:06:18;18.30;42.90
55121;DHT22;41019;48.512;9.036;2023-04-15T12:11:34;18.00;43.00
55121;DHT22;41019;48.512;9.036;2023-04-15T12:16:50;17.90;41.70
55121;DHT22;41019;48.512;9.036;2023-04-15T12:19:22;18.30;42.00
55121;DHT22;41019;48.512;9.036;2023-04-15T12:21:50;18.80;42.20
55121;DHT22;41019;48.512;9.036;2023-04-15T12:24:20;19.30;41.40
55121;DHT22;41019;48.512;9.036;2023-04-15T12:26:54;19.70;40.40
55121;DHT22;41019;48.512;9.036;2023-04-15T12:29:25;20.10;42.00
55121;DHT22;41019;48.512;9.036;2023-04-15T12:31:56;20.20;41.20
55121;DHT22;41019;48.512;9.036;2023-04-15T12:34:31;20.10;41.70
55121;DHT22;41019;48.512;9.036;2023-04-15T12:36:59;19.70;41.00
55121;DHT22;41019;48.512;9.036;2023-04-15T12:39:27;19.40;40.90
55121;DHT22;41019;48.512;9.036;2023-04-15T12:41:54;19.00;41.10
55121;DHT22;41019;48.512;9.036;2023-04-15T12:44:22;18.90;43.40
55121;DHT22;41019;48.512;9.036;2023-04-15T12:46:49;18.60;41.60
55121;DHT22;41019;48.512;9.036;2023-04-15T12:49:15;18.30;43.40
55121;DHT22;41019;48.512;9.036;2023-04-15T12:51:44;18.10;42.50
55121;DHT22;41019;48.512;9.036;2023-04-15T12:54:10;17.90;42.50
55121;DHT22;41019;48.512;9.036;2023-04-15T12:56:36;17.80;43.30
55121;DHT22;41019;48.512;9.036;2023-04-15T12:59:02;17.80;43.60
55121;DHT22;41019;48.512;9.036;2023-04-15T13:01:28;18.10;43.30
55121;DHT22;41019;48.512;9.036;2023-04-15T13:03:53;18.30;42.70
55121;DHT22;41019;48.512;9.036;2023-04-15T13:06:21;18.50;43.40
55121;DHT22;41019;48.512;9.036;2023-04-15T13:08:47;18.60;40.80
55121;DHT22;41019;48.512;9.036;2023-04-15T13:11:13;18.60;40.10
55121;DHT22;41019;48.512;9.036;2023-04-15T13:13:39;18.60;39.60
55121;DHT22;41019;48.512;9.036;2023-04-15T13:16:05;18.60;39.70
55121;DHT22;41019;48.512;9.036;2023-04-15T13:18:31;18.70;40.80
55121;DHT22;41019;48.512;9.036;2023-04-15T13:20:59;18.90;41.20
55121;DHT22;41019;48.512;9.036;2023-04-15T13:23:26;19.00;40.40
55121;DHT22;41019;48.512;9.036;2023-04-15T13:25:52;18.90;40.70
55121;DHT22;41019;48.512;9.036;2023-04-15T13:28:17;19.00;42.60
55121;DHT22;41019;48.512;9.036;2023-04-15T13:30:43;19.00;42.20
55121;DHT22;41019;48.512;9.036;2023-04-15T13:33:11;18.90;42.00
55121;DHT22;41019;48.512;9.036;2023-04-15T13:35:37;18.80;42.40
55121;DHT22;41019;48.512;9.036;2023-04-15T13:38:02;18.80;41.40
55121;DHT22;41019;48.512;9.036;2023-04-15T13:40:28;18.40;42.30
55121;DHT22;41019;48.512;9.036;2023-04-15T13:42:54;18.30;43.10
55121;DHT22;41019;48.512;9.036;2023-04-15T13:45:21;18.10;42.80
55121;DHT22;41019;48.512;9.036;2023-04-15T13:47:46;18.10;40.20
55121;DHT22;41019;48.512;9.036;2023-04-15T13:50:13;18.10;41.80
55121;DHT22;41019;48.512;9.036;2023-04-15T13:52:38;18.10;39.70
55121;DHT22;41019;48.512;9.036;2023-04-15T13:55:05;18.00;40.10
55121;DHT22;41019;48.512;9.036;2023-04-15T13:57:31;18.00;40.50
55121;DHT22;41019;48.512;9.036;2023-04-15T13:59:57;17.70;44.50
55121;DHT22;41019;48.512;9.036;2023-04-15T14:02:23;17.50;44.90
55121;DHT22;41019;48.512;9.036;2023-04-15T14:04:49;17.20;45.60
55121;DHT22;41019;48.512;9.036;2023-04-15T14:07:15;17.00;46.20
55121;DHT22;41019;48.512;9.036;2023-04-15T14:09:41;16.80;46.50
55121;DHT22;41019;48.512;9.036;2023-04-15T14:12:07;16.40;45.80
55121;DHT22;41019;48.512;9.036;2023-04-15T14:14:33;15.90;46.60
55121;DHT22;41019;48.512;9.036;2023-04-15T14:16:59;15.90;47.00
55121;DHT22;41019;48.512;9.036;2023-04-15T14:19:25;15.80;47.60
55121;DHT22;41019;48.512;9.036;2023-04-15T14:21:51;15.50;47.50
55121;DHT22;41019;48.512;9.036;2023-04-15T14:24:17;15.50;48.90
55121;DHT22;41019;48.512;9.036;2023-04-15T14:26:42;15.50;48.70
55121;DHT22;41019;48.512;9.036;2023-04-15T14:29:09;15.40;48.20
55121;DHT22;41019;48.512;9.036;2023-04-15T14:31:35;15.40;48.10
55121;DHT22;41019;48.512;9.036;2023-04-15T14:34:01;15.40;46.90
55121;DHT22;41019;48.512;9.036;2023-04-15T14:36:27;15.40;46.60
55121;DHT22;41019;48.512;9.036;2023-04-15T14:38:53;15.30;45.70
55121;DHT22;41019;48.512;9.036;2023-04-15T14:41:18;15.30;45.70
55121;DHT22;41019;48.512;9.036;2023-04-15T14:43:44;15.30;45.80
55121;DHT22;41019;48.512;9.036;2023-04-15T14:46:10;15.20;45.90
55121;DHT22;41019;48.512;9.036;2023-04-15T14:48:36;15.10;46.00
55121;DHT22;41019;48.512;9.036;2023-04-15T14:51:02;15.00;46.70
55121;DHT22;41019;48.512;9.036;2023-04-15T14:53:28;15.00;46.30
55121;DHT22;41019;48.512;9.036;2023-04-15T14:55:54;14.90;45.70
55121;DHT22;41019;48.512;9.036;2023-04-15T14:58:19;14.80;45.90
55121;DHT22;41019;48.512;9.036;2023-04-15T15:00:45;14.70;45.40
55121;DHT22;41019;48.512;9.036;2023-04-15T15:03:11;14.70;47.10
55121;DHT22;41019;48.512;9.036;2023-04-15T15:05:38;14.60;45.30
55121;DHT22;41019;48.512;9.036;2023-04-15T15:08:06;14.50;44.60
55121;DHT22;41019;48.512;9.036;2023-04-15T15:10:33;14.50;45.30
55121;DHT22;41019;48.512;9.036;2023-04-15T15:12:59;14.40;43.40
55121;DHT22;41019;48.512;9.036;2023-04-15T15:15:24;14.40;44.20
55121;DHT22;41019;48.512;9.036;2023-04-15T15:17:50;14.30;42.70
55121;DHT22;41019;48.512;9.036;2023-04-15T15:20:18;14.30;43.50
55121;DHT22;41019;48.512;9.036;2023-04-15T15:22:43;14.30;44.10
55121;DHT22;41019;48.512;9.036;2023-04-15T15:25:09;14.20;43.90
55121;DHT22;41019;48.512;9.036;2023-04-15T15:27:35;14.30;44.80
55121;DHT22;41019;48.512;9.036;2023-04-15T15:30:02;14.10;43.80
55121;DHT22;41019;48.512;9.036;2023-04-15T15:32:28;14.10;44.50
55121;DHT22;41019;48.512;9.036;2023-04-15T15:34:54;14.10;44.90
55121;DHT22;41019;48.512;9.036;2023-04-15T15:37:20;14.00;44.80
55121;DHT22;41019;48.512;9.036;2023-04-15T15:39:47;14.10;46.00
55121;DHT22;41019;48.512;9.036;2023-04-15T15:42:17;14.00;46.50
55121;DHT22;41019;48.512;9.036;2023-04-15T15:44:43;14.00;46.90
55121;DHT22;41019;48.512;9.036;2023-04-15T15:47:09;14.00;48.30